UPDATE or REFRESH or RELOAD each time you view race results!

The  Belmont 16ft Sailing Club Ltd  Presents

Results by : TopYacht Software

Race 1   [29/12/2011]   updated on :  29/12/2011  1:10:58 PM

Cadet National Championships 2011/12

Cadet Nationals results Start : 10:35:00
Place Sail No Boat Name From Elapsd YS Cor d T Skipper CREW Score Fin Tim
1 9523 BROTHERS IN ARMS RGYC 01:07:40 01:07:40 Darcy Baranowski Dominic Randall 1.0 11:42:40
2 9698 WILDCARD RGYC 01:08:46 01:08:46 Liam Robinson Gabe Nolan 2.0 11:43:46
3 9614 TEMPEST RGYC 01:10:02 01:10:02 Olivia Neilson Joel Lay 3.0 11:45:02
4 9629 WHITE MISSILE RGYC 01:10:23 01:10:23 Nicola Armstrong Emma Kelly 4.0 11:45:23
5 9528 ODYSSEY SYC 01:11:40 01:11:40 Jarad Cavanagh Shae Rohan 5.0 11:46:40
6 9284 MAGOO 2 SYC 01:11:44 01:11:44 Patrick Chipp Jack Furey 6.0 11:46:44
7 9699 SIROCCO SBSC 01:12:14 01:12:14 Charlie Connor Ethan Galbraith 7.0 11:47:14
8 9529 INSAYNE SYC 01:12:33 01:12:33 Jacob Freeman Jonathan Coman 8.0 11:47:33
9 9562 MELTEMI SBSC 01:12:36 01:12:36 Oliver Burnell Issie De Clerk 9.0 11:47:36
10 9778 IMPULSE SBSC 01:14:09 01:14:09 Samantha Bailey Hannah Chadwick 10.0 11:49:09
11 9280 UNFINISHED BUSINESS SYC 01:14:16 01:14:16 Alice Endersbee Eliza Davies 11.0 11:49:16
12 9744 SHADOW LBSC 01:14:19 01:14:19 Jalina Thompson-Kamb Starr Thompson 12.0 11:49:19
13 9531 PHOENIX SBSC 01:14:30 01:14:30 Sam Tiedemann Chloe Abel 13.0 11:49:30
14 5637 VAMOOSE SYC 01:14:32 01:14:32 Charlie Rae Patrick Rohan 14.0 11:49:32
15 9552 EXECUTIONER SBSC 01:14:59 01:14:59 Silas Hamilton Rupert Hamilton 15.0 11:49:59
16 9824 ENDLESS SUMMER PLYC 01:15:27 01:15:27 Amy Perin Marni Lydeamore 16.0 11:50:27
17 9612 DIRTY HARRY SYC 01:15:35 01:15:35 Angus Rae Zoe Rae 17.0 11:50:35
18 9281 HIGH CALIBRE PLYC 01:15:37 01:15:37 Lauren Henderson Alissa Kelsey 18.0 11:50:37
19 9424 SHIMMER SBSC 01:15:49 01:15:49 Sam Abel William Cooper 19.0 11:50:49
20 9559 RESISTANCE RGYC 01:15:50 01:15:50 Riley Mulgrew Oliver Manton 20.0 11:50:50
21 9821 SIBERIAN TIGER RGYC 01:16:11 01:16:11 Sam Stephens Nathan Field 21.0 11:51:11
22 5700 SIDEWINDER RYCV 01:16:22 01:16:22 Louis Schofield Max Knell 22.0 11:51:22
23 9822 GOODNESS GRACIOUS SYC 01:16:37 01:16:37 Grace Endersbee Courtney Perryman 23.0 11:51:37
24 4118 SKEETA RGYC 01:16:47 01:16:47 Oliver Friend Jasper Cartwright 24.0 11:51:47
25 8931 MIDNIGHT MAGIC RGYC 01:16:50 01:16:50 Charlie Friend Ben Townson 25.0 11:51:50
26 5653 MANXMAN RYCV 01:16:54 01:16:54 Brodie Roberts Callum Prestedge 26.0 11:51:54
27 4109 SNAKEBITE RGYC 01:17:03 01:17:03 William Townson Claire Townson 27.0 11:52:03
28 9621 STEALTH RYCV 01:17:05 01:17:05 Jack Fowler Ryan Croft 28.0 11:52:05
29 9550 JOLT BSC 01:17:14 01:17:14 Sarah Lawman Robert Donovan 29.0 11:52:14
30 9520 DROP BEARS SBSC 01:17:16 01:17:16 William Connor Callum Ingram 30.0 11:52:16
31 5758 WILD THING SBSC 01:17:37 01:17:37 Thomas Cooper Angus Price 31.0 11:52:37
32 9620 BLITZ~EM BSC 01:17:52 01:17:52 Ryan Bogatez Mark Donovan 32.0 11:52:52
33 9823 LEAP FROG RGYC 01:18:00 01:18:00 Lucy Stephens Alanna Field 33.0 11:53:00
34 5663 REDPATH RGYC 01:18:04 01:18:04 Georgia Randall Matthew Eid 34.0 11:53:04
35 5509 SAMARAN SYC 01:18:16 01:18:16 Julian Sasson Molly Furey 35.0 11:53:16
36 9617 BULLANT RYCV 01:18:22 01:18:22 Michael Johnson Eamon Zappia 36.0 11:53:22
37 9628 IT'S PINK! RGYC 01:18:37 01:18:37 Emily Goodfellow Lachlan Hill 37.0 11:53:37
38 9527 MUSTANG SALLY RYCV 01:18:39 01:18:39 Jacqueline Prestedge Callum Girvin 38.0 11:53:39
39 9777 X-T-SEA RGYC 01:18:48 01:18:48 Billy Goodfellow Joshua Hill 39.0 11:53:48
40 4690 SAILMAKER RYCV 01:19:05 01:19:05 Ben Wilson Ryan Cambell 40.0 11:54:05
41 5757 STRIKER SYC 01:19:19 01:19:19 Dylan Rohan Lachlan Coman 41.0 11:54:19
42 9747 LIFE TO THE XTREME PLYC 01:19:37 01:19:37 Georgina Hughes Elsie Kenny 42.0 11:54:37
43 9287 CORINTHIAN BSC 01:19:45 01:19:45 Fenella Obrien Toby Burley-Jukes 43.0 11:54:45
44 9524 KING GEORGE RYCV 01:21:23 01:21:23 Phillipah Miller Lucy Fowler 44.0 11:56:23
45 5636 TRUMP CARD BMYC 01:21:24 01:21:24 Kurt Braden Zac Braden 45.0 11:56:24
46 9426 CRAZY BSC 01:21:28 01:21:28 Tristan O'Brien Ella Gray 46.0 11:56:28
47 6969 BRIDGEWICK FARM RYCV 01:21:34 01:21:34 Lucy Fowler Wynn Schofield 47.0 11:56:34
48 9526 HYPER HYPER SYC 01:21:41 01:21:41 Ashley Cavanagh Georgia Wiley 48.0 11:56:41
49 9626 CLAREBUOYANT RYCV 01:21:59 01:21:59 Clare Olding Patrick De Koster 49.0 11:56:59
50 5494 RUSTLER BSC 01:22:33 01:22:33 Stuart Plenderleith Oscar O'Brien 50.0 11:57:33
51 5752 IMP RGYC 01:23:38 01:23:38 Aimee Altermatt Ryu Mayumi 51.0 11:58:38
52 9561 WINNING EDGE SBSC 01:24:06 01:24:06 Toby Burnell Poppy Newton 52.0 11:59:06
53 9616 CHECKMATE RGYC 01:24:51 01:24:51 Thomas Alexander Dexter Hare-Zen 53.0 11:59:51
54 5661 REBEL TWO RGYC 01:24:53 01:24:53 Will Newman Nick Manton 54.0 11:59:53
55 5740 RECOIL BSC 01:25:21 01:25:21 James Burley-Jukes Charlotte Rogers 55.0 12:00:21
56 5616 LOQUACIOUS SYC 01:26:30 01:26:30 Brooke Robson Zoe Wiley 56.0 12:01:30
57 5501 WASABI BSC 01:27:03 01:27:03 Luke Bogatez Matthew Ackery 57.0 12:02:03
58 9611 HOLD ON RYCV 01:27:23 01:27:23 Harrison Croft James Black 58.0 12:02:23
59 4881 PIRANHA BSC 01:28:46 01:28:46 Charlotte Gray Mackenzie Gray 59.0 12:03:46
DNF 5489 DELTA BSC     Vicki Waldock Hannah Miller 61.0